sensor_id;sensor_type;location;lat;lon;timestamp;temperature;humidity
49503;DHT22;35409;48.776;9.204;2023-02-17T13:57:32;16.00;99.90
49503;DHT22;35409;48.776;9.204;2023-02-17T14:00:25;16.10;99.90
49503;DHT22;35409;48.776;9.204;2023-02-17T14:02:56;16.10;99.90
49503;DHT22;35409;48.776;9.204;2023-02-17T14:05:37;16.00;99.90
49503;DHT22;35409;48.776;9.204;2023-02-17T14:11:14;15.80;99.90
49503;DHT22;35409;48.776;9.204;2023-02-17T14:13:48;15.70;99.90
49503;DHT22;35409;48.776;9.204;2023-02-17T14:16:41;15.80;99.90
49503;DHT22;35409;48.776;9.204;2023-02-17T14:19:16;15.70;99.90
49503;DHT22;35409;48.776;9.204;2023-02-17T14:24:26;15.40;99.90
49503;DHT22;35409;48.776;9.204;2023-02-17T14:27:00;15.30;99.90
49503;DHT22;35409;48.776;9.204;2023-02-17T14:29:40;15.20;99.90
49503;DHT22;35409;48.776;9.204;2023-02-17T14:32:06;15.40;99.90
49503;DHT22;35409;48.776;9.204;2023-02-17T14:34:34;15.30;99.90
49503;DHT22;35409;48.776;9.204;2023-02-17T14:37:17;15.40;99.90
49503;DHT22;35409;48.776;9.204;2023-02-17T14:39:45;15.20;99.90
49503;DHT22;35409;48.776;9.204;2023-02-17T14:42:11;15.00;99.90
49503;DHT22;35409;48.776;9.204;2023-02-17T14:44:37;15.00;99.90
49503;DHT22;35409;48.776;9.204;2023-02-17T14:47:03;15.00;99.90
49503;DHT22;35409;48.776;9.204;2023-02-17T14:49:28;14.90;99.90
49503;DHT22;35409;48.776;9.204;2023-02-17T14:51:55;14.80;99.90
49503;DHT22;35409;48.776;9.204;2023-02-17T14:54:20;14.80;99.90
49503;DHT22;35409;48.776;9.204;2023-02-17T14:57:01;14.60;99.90
49503;DHT22;35409;48.776;9.204;2023-02-17T14:59:28;14.50;99.90
49503;DHT22;35409;48.776;9.204;2023-02-17T15:01:54;14.40;99.90
49503;DHT22;35409;48.776;9.204;2023-02-17T15:04:20;14.40;99.90
49503;DHT22;35409;48.776;9.204;2023-02-17T15:06:47;14.40;99.90
49503;DHT22;35409;48.776;9.204;2023-02-17T15:09:16;14.30;99.90
49503;DHT22;35409;48.776;9.204;2023-02-17T15:11:42;14.30;99.90
49503;DHT22;35409;48.776;9.204;2023-02-17T15:14:15;14.40;99.90
49503;DHT22;35409;48.776;9.204;2023-02-17T15:16:42;14.40;99.90
49503;DHT22;35409;48.776;9.204;2023-02-17T15:19:09;14.30;99.90
49503;DHT22;35409;48.776;9.204;2023-02-17T15:21:37;14.40;99.90
49503;DHT22;35409;48.776;9.204;2023-02-17T15:24:11;14.40;99.90
49503;DHT22;35409;48.776;9.204;2023-02-17T15:26:38;14.30;99.90
49503;DHT22;35409;48.776;9.204;2023-02-17T15:29:03;14.20;99.90
49503;DHT22;35409;48.776;9.204;2023-02-17T15:31:31;14.10;99.90
49503;DHT22;35409;48.776;9.204;2023-02-17T15:33:59;14.00;99.90
49503;DHT22;35409;48.776;9.204;2023-02-17T15:36:26;14.00;99.90
49503;DHT22;35409;48.776;9.204;2023-02-17T15:38:52;14.00;99.90
49503;DHT22;35409;48.776;9.204;2023-02-17T15:41:27;14.00;99.90
49503;DHT22;35409;48.776;9.204;2023-02-17T15:43:54;13.90;99.90
49503;DHT22;35409;48.776;9.204;2023-02-17T15:46:27;13.80;99.90
49503;DHT22;35409;48.776;9.204;2023-02-17T15:48:54;13.80;99.90
49503;DHT22;35409;48.776;9.204;2023-02-17T15:51:19;13.80;99.90
49503;DHT22;35409;48.776;9.204;2023-02-17T15:53:46;13.70;99.90
49503;DHT22;35409;48.776;9.204;2023-02-17T15:56:20;13.70;99.90
49503;DHT22;35409;48.776;9.204;2023-02-17T15:58:47;13.60;99.90
49503;DHT22;35409;48.776;9.204;2023-02-17T16:01:28;13.50;99.90
49503;DHT22;35409;48.776;9.204;2023-02-17T16:03:55;13.50;99.90
49503;DHT22;35409;48.776;9.204;2023-02-17T16:06:22;13.40;99.90
49503;DHT22;35409;48.776;9.204;2023-02-17T16:08:47;13.40;99.90
49503;DHT22;35409;48.776;9.204;2023-02-17T16:11:14;13.20;99.90
49503;DHT22;35409;48.776;9.204;2023-02-17T16:13:41;13.20;99.90
49503;DHT22;35409;48.776;9.204;2023-02-17T16:16:18;13.20;99.90
49503;DHT22;35409;48.776;9.204;2023-02-17T16:18:47;13.20;99.90
49503;DHT22;35409;48.776;9.204;2023-02-17T16:21:13;13.10;99.90
49503;DHT22;35409;48.776;9.204;2023-02-17T16:23:40;13.10;99.90
49503;DHT22;35409;48.776;9.204;2023-02-17T16:26:31;13.00;99.90
49503;DHT22;35409;48.776;9.204;2023-02-17T16:28:59;13.00;99.90
49503;DHT22;35409;48.776;9.204;2023-02-17T16:31:25;12.90;99.90
49503;DHT22;35409;48.776;9.204;2023-02-17T16:33:51;12.70;99.90
49503;DHT22;35409;48.776;9.204;2023-02-17T16:36:18;12.70;99.90
49503;DHT22;35409;48.776;9.204;2023-02-17T16:38:47;12.80;99.90
49503;DHT22;35409;48.776;9.204;2023-02-17T16:41:15;12.70;99.90
49503;DHT22;35409;48.776;9.204;2023-02-17T16:43:42;12.80;99.90
49503;DHT22;35409;48.776;9.204;2023-02-17T16:48:42;12.80;99.90
49503;DHT22;35409;48.776;9.204;2023-02-17T16:51:08;12.80;99.90
49503;DHT22;35409;48.776;9.204;2023-02-17T16:53:34;12.70;99.90
49503;DHT22;35409;48.776;9.204;2023-02-17T16:56:11;12.70;99.90
49503;DHT22;35409;48.776;9.204;2023-02-17T16:58:39;12.70;99.90
49503;DHT22;35409;48.776;9.204;2023-02-17T17:01:05;12.70;99.90
49503;DHT22;35409;48.776;9.204;2023-02-17T17:03:37;12.70;99.90
49503;DHT22;35409;48.776;9.204;2023-02-17T17:08:44;12.70;99.90
49503;DHT22;35409;48.776;9.204;2023-02-17T17:11:13;12.70;99.90
49503;DHT22;35409;48.776;9.204;2023-02-17T17:13:39;12.70;99.90
49503;DHT22;35409;48.776;9.204;2023-02-17T17:16:12;12.80;99.90
49503;DHT22;35409;48.776;9.204;2023-02-17T17:18:38;12.80;99.90
49503;DHT22;35409;48.776;9.204;2023-02-17T17:21:04;12.80;99.90
49503;DHT22;35409;48.776;9.204;2023-02-17T17:23:30;12.80;99.90
49503;DHT22;35409;48.776;9.204;2023-02-17T17:25:56;12.80;99.90
49503;DHT22;35409;48.776;9.204;2023-02-17T17:28:21;12.90;99.90
49503;DHT22;35409;48.776;9.204;2023-02-17T17:30:47;12.90;99.90
49503;DHT22;35409;48.776;9.204;2023-02-17T17:33:14;12.90;99.90
49503;DHT22;35409;48.776;9.204;2023-02-17T17:35:39;12.90;99.90
49503;DHT22;35409;48.776;9.204;2023-02-17T17:38:05;13.00;99.90
49503;DHT22;35409;48.776;9.204;2023-02-17T17:40:33;12.90;99.90
49503;DHT22;35409;48.776;9.204;2023-02-17T17:43:17;12.90;99.90
49503;DHT22;35409;48.776;9.204;2023-02-17T17:45:45;12.90;99.90
49503;DHT22;35409;48.776;9.204;2023-02-17T17:48:12;12.90;99.90
49503;DHT22;35409;48.776;9.204;2023-02-17T17:50:38;12.90;99.90
49503;DHT22;35409;48.776;9.204;2023-02-17T17:53:04;12.80;99.90
49503;DHT22;35409;48.776;9.204;2023-02-17T17:55:29;12.80;99.90
49503;DHT22;35409;48.776;9.204;2023-02-17T17:57:55;12.90;99.90
49503;DHT22;35409;48.776;9.204;2023-02-17T18:00:21;12.90;99.90
49503;DHT22;35409;48.776;9.204;2023-02-17T18:02:47;12.80;99.90
49503;DHT22;35409;48.776;9.204;2023-02-17T18:05:12;12.80;99.90
49503;DHT22;35409;48.776;9.204;2023-02-17T18:07:40;12.80;99.90
49503;DHT22;35409;48.776;9.204;2023-02-17T18:10:08;12.80;99.90
49503;DHT22;35409;48.776;9.204;2023-02-17T18:12:35;12.80;99.90
49503;DHT22;35409;48.776;9.204;2023-02-17T18:15:01;12.80;99.90
49503;DHT22;35409;48.776;9.204;2023-02-17T18:17:31;12.80;99.90
49503;DHT22;35409;48.776;9.204;2023-02-17T18:19:57;12.80;99.90
49503;DHT22;35409;48.776;9.204;2023-02-17T18:22:23;12.80;99.90
49503;DHT22;35409;48.776;9.204;2023-02-17T18:24:49;12.80;99.90
49503;DHT22;35409;48.776;9.204;2023-02-17T18:27:15;12.70;99.90
49503;DHT22;35409;48.776;9.204;2023-02-17T18:29:41;12.80;99.90
49503;DHT22;35409;48.776;9.204;2023-02-17T18:32:07;12.90;99.90
49503;DHT22;35409;48.776;9.204;2023-02-17T18:34:32;12.80;99.90
49503;DHT22;35409;48.776;9.204;2023-02-17T18:36:58;12.80;99.90
49503;DHT22;35409;48.776;9.204;2023-02-17T18:39:24;12.80;99.90
49503;DHT22;35409;48.776;9.204;2023-02-17T18:41:50;12.80;99.90
49503;DHT22;35409;48.776;9.204;2023-02-17T18:44:16;12.80;99.90
49503;DHT22;35409;48.776;9.204;2023-02-17T18:46:41;12.80;99.90
49503;DHT22;35409;48.776;9.204;2023-02-17T18:49:08;12.70;99.90
49503;DHT22;35409;48.776;9.204;2023-02-17T18:51:33;12.70;99.90
49503;DHT22;35409;48.776;9.204;2023-02-17T18:53:59;12.70;99.90
49503;DHT22;35409;48.776;9.204;2023-02-17T18:56:28;12.70;99.90
49503;DHT22;35409;48.776;9.204;2023-02-17T18:58:54;12.70;99.90
49503;DHT22;35409;48.776;9.204;2023-02-17T19:01:22;12.70;99.90
49503;DHT22;35409;48.776;9.204;2023-02-17T19:03:48;12.60;99.90
49503;DHT22;35409;48.776;9.204;2023-02-17T19:06:17;12.60;99.90
49503;DHT22;35409;48.776;9.204;2023-02-17T19:08:44;12.50;99.90
49503;DHT22;35409;48.776;9.204;2023-02-17T19:11:10;12.50;99.90
49503;DHT22;35409;48.776;9.204;2023-02-17T19:13:36;12.50;99.90
49503;DHT22;35409;48.776;9.204;2023-02-17T19:16:10;12.50;99.90
49503;DHT22;35409;48.776;9.204;2023-02-17T19:18:37;12.60;99.90
49503;DHT22;35409;48.776;9.204;2023-02-17T19:21:03;12.50;99.90
49503;DHT22;35409;48.776;9.204;2023-02-17T19:23:29;12.50;99.90
49503;DHT22;35409;48.776;9.204;2023-02-17T19:25:55;12.50;99.90
49503;DHT22;35409;48.776;9.204;2023-02-17T19:28:21;12.40;99.90
49503;DHT22;35409;48.776;9.204;2023-02-17T19:30:47;12.40;99.90
49503;DHT22;35409;48.776;9.204;2023-02-17T19:33:12;12.40;99.90
49503;DHT22;35409;48.776;9.204;2023-02-17T19:35:42;12.40;99.90
49503;DHT22;35409;48.776;9.204;2023-02-17T19:38:08;12.40;99.90
49503;DHT22;35409;48.776;9.204;2023-02-17T19:40:34;12.30;99.90
49503;DHT22;35409;48.776;9.204;2023-02-17T19:43:00;12.40;99.90
49503;DHT22;35409;48.776;9.204;2023-02-17T19:45:26;12.50;99.90
49503;DHT22;35409;48.776;9.204;2023-02-17T19:47:52;12.70;99.90
49503;DHT22;35409;48.776;9.204;2023-02-17T19:50:18;12.60;99.90
49503;DHT22;35409;48.776;9.204;2023-02-17T19:52:43;12.70;99.90
49503;DHT22;35409;48.776;9.204;2023-02-17T19:55:09;12.70;99.90
49503;DHT22;35409;48.776;9.204;2023-02-17T19:57:35;12.70;99.90
49503;DHT22;35409;48.776;9.204;2023-02-17T20:00:00;12.70;99.90
49503;DHT22;35409;48.776;9.204;2023-02-17T20:02:26;12.60;99.90
49503;DHT22;35409;48.776;9.204;2023-02-17T20:04:52;12.60;99.90
49503;DHT22;35409;48.776;9.204;2023-02-17T20:07:17;12.50;99.90
49503;DHT22;35409;48.776;9.204;2023-02-17T20:09:43;12.60;99.90
49503;DHT22;35409;48.776;9.204;2023-02-17T20:12:08;12.40;99.90
49503;DHT22;35409;48.776;9.204;2023-02-17T20:14:34;12.40;99.90
49503;DHT22;35409;48.776;9.204;2023-02-17T20:16:59;12.40;99.90
49503;DHT22;35409;48.776;9.204;2023-02-17T20:19:26;12.30;99.90
49503;DHT22;35409;48.776;9.204;2023-02-17T20:21:52;12.30;99.90
49503;DHT22;35409;48.776;9.204;2023-02-17T20:24:18;12.20;99.90
49503;DHT22;35409;48.776;9.204;2023-02-17T20:26:46;12.10;99.90
49503;DHT22;35409;48.776;9.204;2023-02-17T20:29:12;12.10;99.90
49503;DHT22;35409;48.776;9.204;2023-02-17T20:31:39;12.00;99.90
49503;DHT22;35409;48.776;9.204;2023-02-17T20:34:07;12.00;99.90
49503;DHT22;35409;48.776;9.204;2023-02-17T20:36:33;11.90;99.90
49503;DHT22;35409;48.776;9.204;2023-02-17T20:39:00;11.80;99.90
49503;DHT22;35409;48.776;9.204;2023-02-17T20:41:25;11.90;99.90
49503;DHT22;35409;48.776;9.204;2023-02-17T20:43:51;11.90;99.90
49503;DHT22;35409;48.776;9.204;2023-02-17T20:46:23;11.90;99.90
49503;DHT22;35409;48.776;9.204;2023-02-17T20:48:50;12.00;99.90
49503;DHT22;35409;48.776;9.204;2023-02-17T20:51:15;12.10;99.90
49503;DHT22;35409;48.776;9.204;2023-02-17T20:56:38;12.20;99.90
49503;DHT22;35409;48.776;9.204;2023-02-17T20:59:05;12.00;99.90
49503;DHT22;35409;48.776;9.204;2023-02-17T21:01:32;12.00;99.90
49503;DHT22;35409;48.776;9.204;2023-02-17T21:03:58;12.00;99.90
49503;DHT22;35409;48.776;9.204;2023-02-17T21:06:30;12.00;99.90
49503;DHT22;35409;48.776;9.204;2023-02-17T21:08:58;12.00;99.90
49503;DHT22;35409;48.776;9.204;2023-02-17T21:11:24;12.00;99.90
49503;DHT22;35409;48.776;9.204;2023-02-17T21:13:50;12.10;99.90
49503;DHT22;35409;48.776;9.204;2023-02-17T21:16:18;12.10;99.90
49503;DHT22;35409;48.776;9.204;2023-02-17T21:18:45;12.10;99.90
49503;DHT22;35409;48.776;9.204;2023-02-17T21:21:11;12.10;99.90
49503;DHT22;35409;48.776;9.204;2023-02-17T21:23:37;12.10;99.90
49503;DHT22;35409;48.776;9.204;2023-02-17T21:26:08;12.10;99.90
49503;DHT22;35409;48.776;9.204;2023-02-17T21:28:34;12.10;99.90
49503;DHT22;35409;48.776;9.204;2023-02-17T21:31:00;12.20;99.90
49503;DHT22;35409;48.776;9.204;2023-02-17T21:33:25;12.20;99.90
49503;DHT22;35409;48.776;9.204;2023-02-17T21:35:52;12.20;99.90
49503;DHT22;35409;48.776;9.204;2023-02-17T21:38:18;12.20;99.90
49503;DHT22;35409;48.776;9.204;2023-02-17T21:40:46;12.20;99.90
49503;DHT22;35409;48.776;9.204;2023-02-17T21:43:15;12.20;99.90
49503;DHT22;35409;48.776;9.204;2023-02-17T21:45:59;12.20;99.90
49503;DHT22;35409;48.776;9.204;2023-02-17T21:48:25;12.20;99.90
49503;DHT22;35409;48.776;9.204;2023-02-17T21:50:51;12.20;99.90
49503;DHT22;35409;48.776;9.204;2023-02-17T21:53:16;12.20;99.90
49503;DHT22;35409;48.776;9.204;2023-02-17T21:55:42;12.20;99.90
49503;DHT22;35409;48.776;9.204;2023-02-17T21:58:07;12.20;99.90
49503;DHT22;35409;48.776;9.204;2023-02-17T22:00:33;12.20;99.90
49503;DHT22;35409;48.776;9.204;2023-02-17T22:02:59;12.20;99.90
49503;DHT22;35409;48.776;9.204;2023-02-17T22:05:29;12.30;99.90
49503;DHT22;35409;48.776;9.204;2023-02-17T22:07:55;12.30;99.90
49503;DHT22;35409;48.776;9.204;2023-02-17T22:10:21;12.30;99.90
49503;DHT22;35409;48.776;9.204;2023-02-17T22:12:46;12.30;99.90
49503;DHT22;35409;48.776;9.204;2023-02-17T22:15:12;12.20;99.90
49503;DHT22;35409;48.776;9.204;2023-02-17T22:17:40;12.20;99.90
49503;DHT22;35409;48.776;9.204;2023-02-17T22:20:06;12.30;99.90
49503;DHT22;35409;48.776;9.204;2023-02-17T22:22:32;12.30;99.90
49503;DHT22;35409;48.776;9.204;2023-02-17T22:24:58;12.30;99.90
49503;DHT22;35409;48.776;9.204;2023-02-17T22:27:23;12.20;99.90
49503;DHT22;35409;48.776;9.204;2023-02-17T22:29:49;12.20;99.90
49503;DHT22;35409;48.776;9.204;2023-02-17T22:32:15;12.20;99.90
49503;DHT22;35409;48.776;9.204;2023-02-17T22:34:40;12.20;99.90
49503;DHT22;35409;48.776;9.204;2023-02-17T22:37:06;12.20;99.90
49503;DHT22;35409;48.776;9.204;2023-02-17T22:39:31;12.30;99.90
49503;DHT22;35409;48.776;9.204;2023-02-17T22:41:57;12.20;99.90
49503;DHT22;35409;48.776;9.204;2023-02-17T22:44:23;12.20;99.90
49503;DHT22;35409;48.776;9.204;2023-02-17T22:46:48;12.20;99.90
49503;DHT22;35409;48.776;9.204;2023-02-17T22:49:14;12.30;99.90
49503;DHT22;35409;48.776;9.204;2023-02-17T22:51:39;12.30;99.90
49503;DHT22;35409;48.776;9.204;2023-02-17T22:54:06;12.30;99.90
49503;DHT22;35409;48.776;9.204;2023-02-17T22:56:32;12.20;99.90
49503;DHT22;35409;48.776;9.204;2023-02-17T22:58:58;12.30;99.90
49503;DHT22;35409;48.776;9.204;2023-02-17T23:01:31;12.30;99.90
49503;DHT22;35409;48.776;9.204;2023-02-17T23:03:56;12.30;99.90
49503;DHT22;35409;48.776;9.204;2023-02-17T23:06:33;12.20;99.90
49503;DHT22;35409;48.776;9.204;2023-02-17T23:08:59;12.30;99.90
49503;DHT22;35409;48.776;9.204;2023-02-17T23:11:31;12.30;99.90
49503;DHT22;35409;48.776;9.204;2023-02-17T23:14:31;12.30;99.90
49503;DHT22;35409;48.776;9.204;2023-02-17T23:17:00;12.30;99.90
49503;DHT22;35409;48.776;9.204;2023-02-17T23:19:27;12.30;99.90
49503;DHT22;35409;48.776;9.204;2023-02-17T23:21:55;12.20;99.90
49503;DHT22;35409;48.776;9.204;2023-02-17T23:24:22;12.20;99.90
49503;DHT22;35409;48.776;9.204;2023-02-17T23:26:49;12.20;99.90
49503;DHT22;35409;48.776;9.204;2023-02-17T23:29:15;12.10;99.90
49503;DHT22;35409;48.776;9.204;2023-02-17T23:31:41;12.20;99.90
49503;DHT22;35409;48.776;9.204;2023-02-17T23:34:07;12.20;99.90
49503;DHT22;35409;48.776;9.204;2023-02-17T23:36:33;12.10;99.90
49503;DHT22;35409;48.776;9.204;2023-02-17T23:38:59;12.10;99.90
49503;DHT22;35409;48.776;9.204;2023-02-17T23:41:25;12.20;99.90
49503;DHT22;35409;48.776;9.204;2023-02-17T23:43:51;12.10;99.90
49503;DHT22;35409;48.776;9.204;2023-02-17T23:46:17;12.10;99.90
49503;DHT22;35409;48.776;9.204;2023-02-17T23:48:44;12.10;99.90
49503;DHT22;35409;48.776;9.204;2023-02-17T23:51:14;12.20;99.90
49503;DHT22;35409;48.776;9.204;2023-02-17T23:53:40;12.20;99.90
49503;DHT22;35409;48.776;9.204;2023-02-17T23:56:10;12.20;99.90
49503;DHT22;35409;48.776;9.204;2023-02-17T23:58:36;12.20;99.90
